createdAt,value
2022-09-15T00:02:49.139Z,5.20
2022-09-15T00:07:49.018Z,6.50
2022-09-15T00:12:49.027Z,6.50
2022-09-15T00:17:49.034Z,7.40
2022-09-15T00:22:49.051Z,7.40
2022-09-15T00:27:49.004Z,7.50
2022-09-15T00:32:49.030Z,7.50
2022-09-15T00:37:49.012Z,5.70
2022-09-15T00:47:49.042Z,5.80
2022-09-15T00:52:49.100Z,5.80
2022-09-15T00:57:49.018Z,5.50
2022-09-15T01:02:49.097Z,5.50
2022-09-15T01:07:49.036Z,4.40
2022-09-15T01:12:49.077Z,4.40
2022-09-15T01:17:49.042Z,4.50
2022-09-15T01:22:49.078Z,4.50
2022-09-15T01:27:49.060Z,3.60
2022-09-15T01:32:49.055Z,3.60
2022-09-15T01:37:49.059Z,3.40
2022-09-15T01:42:49.128Z,3.40
2022-09-15T01:47:49.083Z,3.30
2022-09-15T01:52:49.099Z,3.30
2022-09-15T01:57:49.059Z,2.80
2022-09-15T02:07:49.108Z,2.70
2022-09-15T02:22:49.322Z,2.40
2022-09-15T02:27:49.054Z,2.10
2022-09-15T02:32:49.089Z,2.10
2022-09-15T02:37:49.097Z,2.70
2022-09-15T02:42:49.101Z,2.70
2022-09-15T02:47:49.375Z,2.80
2022-09-15T02:52:49.127Z,2.80
2022-09-15T02:57:49.129Z,2.60
2022-09-15T03:02:49.097Z,2.60
2022-09-15T03:07:49.099Z,2.80
2022-09-15T03:12:49.108Z,2.80
2022-09-15T03:22:49.151Z,2.30
2022-09-15T03:27:49.118Z,2.40
2022-09-15T03:32:49.158Z,2.40
2022-09-15T03:37:49.147Z,2.40
2022-09-15T03:42:49.134Z,2.40
2022-09-15T03:47:49.118Z,2.50
2022-09-15T03:52:49.156Z,2.50
2022-09-15T03:57:49.136Z,2.20
2022-09-15T04:02:49.123Z,2.20
2022-09-15T04:07:49.158Z,2.20
2022-09-15T04:12:49.158Z,2.20
2022-09-15T04:17:49.128Z,2.30
2022-09-15T04:22:49.156Z,2.30
2022-09-15T04:27:49.178Z,2.10
2022-09-15T04:32:49.148Z,2.10
2022-09-15T04:37:49.177Z,2.20
2022-09-15T04:42:49.156Z,2.20
2022-09-15T04:47:49.165Z,2.30
2022-09-15T04:52:49.178Z,2.30
2022-09-15T04:57:49.162Z,2.00
2022-09-15T05:02:49.172Z,2.00
2022-09-15T05:07:49.188Z,2.00
2022-09-15T05:12:49.186Z,2.00
2022-09-15T05:17:49.177Z,2.20
2022-09-15T05:22:49.254Z,2.20
2022-09-15T05:27:49.205Z,2.00
2022-09-15T05:32:49.192Z,2.00
2022-09-15T05:37:49.204Z,1.80
2022-09-15T05:42:49.190Z,1.80
2022-09-15T05:47:49.190Z,1.60
2022-09-15T05:52:49.168Z,1.60
2022-09-15T05:57:49.210Z,1.50
2022-09-15T06:02:49.297Z,1.50
2022-09-15T06:07:49.210Z,1.90
2022-09-15T06:12:49.221Z,1.90
2022-09-15T06:17:49.224Z,2.00
2022-09-15T06:22:49.174Z,2.00
2022-09-15T06:27:49.222Z,2.30
2022-09-15T06:32:49.231Z,2.30
2022-09-15T06:37:49.205Z,2.00
2022-09-15T06:42:49.220Z,2.00
2022-09-15T06:47:58.266Z,2.00
2022-09-15T06:52:49.231Z,2.00
2022-09-15T06:57:49.228Z,1.80
2022-09-15T07:02:49.411Z,1.80
2022-09-15T07:07:49.212Z,2.00
2022-09-15T07:12:49.246Z,2.00
2022-09-15T07:17:49.233Z,2.00
2022-09-15T07:22:49.256Z,2.00
2022-09-15T07:27:49.243Z,2.20
2022-09-15T07:32:49.268Z,2.20
2022-09-15T07:37:49.265Z,1.90
2022-09-15T07:42:49.248Z,1.90
2022-09-15T07:47:49.229Z,2.10
2022-09-15T07:52:49.263Z,2.10
2022-09-15T07:57:49.233Z,1.90
2022-09-15T08:02:49.271Z,1.90
2022-09-15T08:07:49.276Z,1.90
2022-09-15T08:12:49.518Z,1.90
2022-09-15T08:17:49.263Z,1.70
2022-09-15T08:22:49.287Z,1.70
2022-09-15T08:27:49.298Z,1.70
2022-09-15T08:32:49.256Z,1.70
2022-09-15T08:37:49.279Z,1.70
2022-09-15T08:42:49.282Z,1.70
2022-09-15T08:47:49.327Z,1.60
2022-09-15T08:52:49.285Z,1.60
2022-09-15T08:57:49.296Z,1.50
2022-09-15T09:02:49.358Z,1.50
2022-09-15T09:07:49.317Z,1.20
2022-09-15T09:12:49.323Z,1.20
2022-09-15T09:17:49.296Z,1.10
2022-09-15T09:22:49.312Z,1.10
2022-09-15T09:27:49.341Z,1.30
2022-09-15T09:32:49.292Z,1.30
2022-09-15T09:37:49.342Z,1.70
2022-09-15T09:42:49.351Z,1.70
2022-09-15T09:47:49.584Z,1.20
2022-09-15T09:52:49.312Z,1.20
2022-09-15T09:57:49.336Z,1.40
2022-09-15T10:02:49.435Z,1.40
2022-09-15T10:07:50.555Z,1.30
2022-09-15T10:12:49.360Z,1.30
2022-09-15T10:17:49.361Z,1.20
2022-09-15T10:22:49.337Z,1.20
2022-09-15T10:27:49.369Z,1.20
2022-09-15T10:32:49.349Z,1.20
2022-09-15T10:37:49.356Z,1.20
2022-09-15T10:42:49.376Z,1.20
2022-09-15T10:47:49.337Z,1.30
2022-09-15T10:52:49.355Z,1.30
2022-09-15T10:57:49.382Z,1.10
2022-09-15T11:02:49.370Z,1.10
2022-09-15T11:07:49.364Z,1.30
2022-09-15T11:12:49.384Z,1.30
2022-09-15T11:17:49.389Z,1.30
2022-09-15T11:22:49.700Z,1.30
2022-09-15T11:27:49.390Z,1.20
2022-09-15T11:32:52.837Z,1.20
2022-09-15T11:37:49.413Z,1.70
2022-09-15T11:42:49.354Z,1.70
2022-09-15T11:47:49.384Z,1.40
2022-09-15T11:52:49.395Z,1.40
2022-09-15T12:02:49.439Z,1.40
2022-09-15T12:07:49.411Z,1.40
2022-09-15T12:12:49.418Z,1.40
2022-09-15T12:17:49.406Z,2.00
2022-09-15T12:22:49.408Z,2.00
2022-09-15T12:27:49.425Z,2.40
2022-09-15T12:32:49.419Z,2.40
2022-09-15T12:37:49.487Z,2.50
2022-09-15T12:42:49.429Z,2.50
2022-09-15T12:47:49.397Z,2.60
2022-09-15T12:52:49.440Z,2.60
2022-09-15T12:57:49.405Z,2.80
2022-09-15T13:02:49.562Z,2.80
2022-09-15T13:07:49.464Z,3.40
2022-09-15T13:12:49.442Z,3.40
2022-09-15T13:17:49.438Z,4.10
2022-09-15T13:22:49.428Z,4.10
2022-09-15T13:27:49.446Z,3.70
2022-09-15T13:32:49.412Z,3.70
2022-09-15T13:38:20.074Z,3.10
2022-09-15T13:42:49.469Z,3.10
2022-09-15T13:47:49.457Z,3.40
2022-09-15T13:52:49.479Z,3.40
2022-09-15T14:02:49.453Z,2.80
2022-09-15T14:07:52.174Z,2.10
2022-09-15T14:12:49.484Z,2.10
2022-09-15T14:22:49.491Z,1.80
2022-09-15T14:27:49.497Z,1.90
2022-09-15T14:32:49.488Z,1.90
2022-09-15T14:37:49.493Z,2.00
2022-09-15T14:42:49.480Z,2.00
2022-09-15T14:47:49.478Z,2.00
2022-09-15T14:52:49.499Z,2.00
2022-09-15T14:57:49.522Z,1.50
2022-09-15T15:02:49.499Z,1.50
2022-09-15T15:07:49.468Z,1.60
2022-09-15T15:12:49.495Z,1.60
2022-09-15T15:17:49.559Z,1.30
2022-09-15T15:22:49.484Z,1.30
2022-09-15T15:32:49.565Z,1.80
2022-09-15T15:37:49.531Z,2.50
2022-09-15T15:42:49.516Z,2.50
2022-09-15T15:47:49.545Z,2.20
2022-09-15T15:52:49.542Z,2.20
2022-09-15T15:57:49.524Z,2.60
2022-09-15T16:07:49.545Z,2.60
2022-09-15T16:12:49.531Z,2.60
2022-09-15T16:17:49.501Z,2.60
2022-09-15T16:22:49.545Z,2.60
2022-09-15T16:27:49.547Z,2.90
2022-09-15T16:32:49.515Z,2.90
2022-09-15T16:37:49.557Z,2.70
2022-09-15T16:42:49.554Z,2.70
2022-09-15T16:47:49.549Z,2.40
2022-09-15T16:52:49.561Z,2.40
2022-09-15T16:57:49.526Z,2.70
2022-09-15T17:02:49.553Z,2.70
2022-09-15T17:07:49.552Z,2.50
2022-09-15T17:12:49.759Z,2.50
2022-09-15T17:17:49.578Z,2.00
2022-09-15T17:22:49.568Z,2.00
2022-09-15T17:27:49.692Z,2.20
2022-09-15T17:32:49.591Z,2.20
2022-09-15T17:37:49.601Z,2.10
2022-09-15T17:42:49.586Z,2.10
2022-09-15T17:47:49.679Z,2.20
2022-09-15T17:52:49.617Z,2.20
2022-09-15T17:57:49.580Z,2.10
2022-09-15T18:02:49.865Z,2.10
2022-09-15T18:07:49.750Z,2.60
2022-09-15T18:12:52.243Z,2.60
2022-09-15T18:22:49.795Z,2.70
2022-09-15T18:27:49.769Z,2.30
2022-09-15T18:32:49.746Z,2.30
2022-09-15T18:37:49.810Z,2.30
2022-09-15T18:42:49.763Z,2.30
2022-09-15T18:47:49.699Z,2.30
2022-09-15T18:52:49.636Z,2.30
2022-09-15T18:57:49.795Z,2.20
2022-09-15T19:02:49.804Z,2.20
2022-09-15T19:07:49.801Z,2.20
2022-09-15T19:12:49.763Z,2.20
2022-09-15T19:17:49.801Z,2.50
2022-09-15T19:22:49.804Z,2.50
2022-09-15T19:27:49.770Z,2.40
2022-09-15T19:32:49.693Z,2.40
2022-09-15T19:37:49.752Z,2.60
2022-09-15T19:42:49.750Z,2.60
2022-09-15T19:47:49.743Z,2.40
2022-09-15T19:52:49.736Z,2.40
2022-09-15T19:57:49.685Z,2.40
2022-09-15T20:02:49.608Z,2.40
2022-09-15T20:07:49.608Z,1.90
2022-09-15T20:12:49.973Z,1.90
2022-09-15T20:17:49.660Z,1.70
2022-09-15T20:22:49.615Z,1.70
2022-09-15T20:37:49.646Z,1.90
2022-09-15T20:42:49.686Z,1.90
2022-09-15T20:47:49.706Z,2.00
2022-09-15T20:52:49.689Z,2.00
2022-09-15T20:57:49.646Z,2.20
2022-09-15T21:02:49.698Z,2.20
2022-09-15T21:17:49.706Z,2.50
2022-09-15T21:22:49.675Z,2.50
2022-09-15T21:27:49.679Z,2.60
2022-09-15T21:37:49.717Z,2.20
2022-09-15T21:42:49.688Z,2.20
2022-09-15T21:47:49.706Z,2.50
2022-09-15T21:52:49.720Z,2.50
2022-09-15T21:57:49.686Z,2.30
2022-09-15T22:07:49.700Z,2.40
2022-09-15T22:12:49.682Z,2.40
2022-09-15T22:22:49.727Z,2.30
2022-09-15T22:27:49.749Z,1.90
2022-09-15T22:32:49.684Z,1.90
2022-09-15T22:37:49.736Z,2.30
2022-09-15T22:42:49.706Z,2.30
2022-09-15T22:47:49.740Z,2.00
2022-09-15T22:52:49.728Z,2.00
2022-09-15T22:57:49.747Z,2.20
2022-09-15T23:02:49.701Z,2.20
2022-09-15T23:07:49.732Z,2.50
2022-09-15T23:12:49.743Z,2.50
2022-09-15T23:17:49.765Z,2.50
2022-09-15T23:22:49.731Z,2.50
2022-09-15T23:27:49.776Z,2.30
2022-09-15T23:32:49.748Z,2.30
2022-09-15T23:37:49.761Z,2.10
2022-09-15T23:47:49.929Z,2.30
2022-09-15T23:52:49.750Z,2.30
2022-09-15T23:57:49.753Z,2.20
